The Internet Pinball Serial Number Database or IPSND collects serial numbers of pinball machines and publishes a database of these on the Internet. Our goal is to make available a registration of all pinball machines in existence and allow tools for slicing, dicing and visualization of the data.

Games: 6,217  Serials: 49,822  Visitors: 28,257,390  Members: 3,726  Photos: 26,819  Lat/Lng: 24,925  Masks: 49,822(801.38 %)  Traits: 501  Nudges: 136,457  Backglasses: 1,862
  Most Serials: Twilight Zone(1,036)  Most Submissions: Rod McLarge(3,264)  Most Points: Rod McLarge(27,988)  Highest Quality: Jim Butler(9.15)  Most Nudges: King of Pinball(18,272)
Submitter: Fun House
Member Since: Thursday, September 22, 2016
Submissions: 2,286 (4th)
SerialBot: 18,628 Points Total (3rd), 7.19 Average Score (3,035th)
Nudges: 2,184(17th)
DateGameSerialNumberGame PartSerialBotDetails
 Item 1 to 100 of 2286
Page:of 23 Page size:
3/13/2019 Star Trek: The Next Generation 51023276402 Other Parts 51023276402
3/13/2019 Star Trek: The Next Generation 51023391761 Complete Game 51023391761
3/10/2019 461555 Other Parts 461555
3/5/2019 Dr. Dude And His Excellent Ray 2016490558 Other Parts 2016490558
3/5/2019 Mousin' Around! 2009300453 Other Parts 2009300453
3/5/2019 Fish Tales 50005021650 Other Parts 50005021650
3/5/2019 Robocop 00617105 Other Parts 00617105
3/4/2019 Family Guy 207677 Complete Game 207677
3/4/2019 Fish Tales 50005I197458 Other Parts 50005I197458
3/4/2019 The Shadow 52832101584 Complete Game 52832101584
3/2/2019 Hot Hand 7433 Complete Game 7433
3/2/2019 Cirqus Voltaire 50262100006 Complete Game 50262100006
3/2/2019 Joust 619365 Complete Game 619365
2/28/2019 Houdini Master of Mystery HOU1336 Complete Game HOU1336
2/28/2019 4002K350017 Other Parts 4002K350017
2/27/2019 The Addams Family Special Collectors Edition 53338404042 Complete Game 53338404042
2/26/2019 Indiana Jones: The Pinball Adventure 51017151732 Other Parts 51017151732
2/26/2019 Aspen 3026 Complete Game 3026
2/26/2019 Medieval Madness (Remake Standard Edition) MM1256 Complete Game MM1256
2/25/2019 Harlem Globetrotters On Tour EGT13319 Complete Game EGT13319
2/25/2019 Funhouse 50003I578716 Complete Game 50003I578716
2/25/2019 Goldeneye 128884 Complete Game 128884
2/25/2019 Star Trek: The Next Generation 51323289922 Other Parts 51323289922
2/25/2019 Star Trek: The Next Generation 50223396941 Complete Game 50223396941
2/25/2019 Medusa EME3988 Complete Game EME3988
2/25/2019 The Addams Family 20017I597529 Other Parts 20017I597529
2/25/2019 Fireball 3416 Complete Game 3416
2/25/2019 The Addams Family 20017I596493 Complete Game 20017I596493
2/24/2019 The Six Million Dollar Man ESM3685 Complete Game ESM3685
2/24/2019 Flash 377322 Complete Game 377322
2/22/2019 The Addams Family 20017591812 Other Parts 20017591812
2/20/2019 Diner 571421689 Other Parts 571421689
2/19/2019 No Fear: Dangerous Sports 51425103914 Other Parts 51425103914
2/19/2019 Cactus Canyon 50466400494 Complete Game 50466400494
2/19/2019 The Champion Pub 50263400949 Complete Game 50263400949
2/19/2019 No Fear: Dangerous Sports 51425102508 Other Parts 51425102508
2/19/2019 Red & Ted's Road Show 50424100593 Complete Game 50424100593
2/19/2019 Creature from the Black Lagoon 20218009791 Other Parts 20218009791
2/19/2019 Dirty Harry 52230111026 Complete Game 52230111026
2/19/2019 Dirty Harry 51430113171 Complete Game 51430113171
2/19/2019 Twilight Zone 50720165691 Other Parts 50720165691
2/19/2019 Creature from the Black Lagoon 20718923480 Complete Game 20718923480
2/19/2019 Terminator 2: Judgment Day 50013I778725 Other Parts 50013I778725
2/19/2019 Creature from the Black Lagoon 21418933780 Complete Game 21418933780
2/19/2019 Indiana Jones: The Pinball Adventure 51417169722 Other Parts 51417169722
2/19/2019 White Water 52218919830 Complete Game 52218919830
2/19/2019 Indiana Jones: The Pinball Adventure 52517272231 Other Parts 52517272231
2/19/2019 Bram Stoker's Dracula 51001053811 Other Parts 51001053811
2/19/2019 Twilight Zone 52520112332 Complete Game 52520112332
2/19/2019 Indiana Jones: The Pinball Adventure 51417172352 Complete Game 51417172352
2/17/2019 Red & Ted's Road Show 50224100353 Other Parts 50224100353
2/17/2019 Batman (66 Premium) 286626 Complete Game 286626
2/17/2019 Silverball Mania ESM5911 Complete Game ESM5911
2/17/2019 Red & Ted's Road Show 51524105402 Complete Game 51524105402
2/17/2019 Monopoly™ 160501 Complete Game 160501
2/17/2019 The Addams Family 20017590662 Complete Game 20017590662
2/16/2019 The Walking Dead (Premium) 270809 Complete Game 270809
2/12/2019 Terminator 2: Judgment Day 50013971288 Complete Game 50013971288
2/11/2019 The Getaway: High Speed II 50004I858021 Complete Game 50004I858021
2/11/2019 The Getaway: High Speed II 50004I096880 Other Parts 50004I096880
2/10/2019 Disney TRON Legacy 231521 Complete Game 231521
2/10/2019 Revenge From Mars 50270103616 Complete Game 50270103616
2/9/2019 Road Kings 542I46921 Complete Game 542I46921
2/9/2019 Corvette 50436100137 Other Parts 50436100137
2/9/2019 The Shadow 52232101413 Complete Game 52232101413
2/9/2019 Aerosmith (Pro) 275960 Complete Game 275960
2/3/2019 F124230 Other Parts F124230
2/3/2019 F126119 Other Parts F126119
2/3/2019 F124304 Other Parts F124304
2/3/2019 World Cup Soccer 51431103327 Complete Game 51431103327
2/3/2019 The Shadow 52532102723 Other Parts 52532102723
2/3/2019 World Cup Soccer 51031107140 Other Parts 51031107140
2/3/2019 Xenon EXE1968 Other Parts EXE1968
2/3/2019 Ghostbusters (Premium) E263250 Complete Game E263250
2/3/2019 Fire! 556I112189 Complete Game 556I112189
2/3/2019 WHO dunnit 53344102676 Complete Game 53344102676
2/3/2019 The Party Zone 20004I847352 Other Parts 20004I847352
2/3/2019 Twilight Zone 52320160511 Complete Game 52320160511
2/3/2019 Doctor Who 20006I066005 Complete Game 20006I066005
2/3/2019 Diner 571I425797 Complete Game 571I425797
2/3/2019 Laser Cue 520I07898 Other Parts 520I07898
2/3/2019 Sorcerer 532I20795 Other Parts 532I20795
2/3/2019 F-14 Tomcat 554I102842 Other Parts 554I102842
2/2/2019 Popeye Saves the Earth 53322350512 Other Parts 53322350512
2/2/2019 Legends of Wrestlemania (Limited Edition) E252231 Complete Game E252231
2/2/2019 24™ E222510 Complete Game E222510
2/2/2019 Indiana Jones: The Pinball Adventure 51017332031 Complete Game 51017332031
2/2/2019 Popeye Saves the Earth 51422310592 Other Parts 51422310592
2/2/2019 Judge Dredd 21420096632 Other Parts 21420096632
2/2/2019 Demolition Man 53328548191 Other Parts 53328548191
2/2/2019 Demolition Man 50428473011 Other Parts 50428473011
2/2/2019 Hollywood Heat 5186 Complete Game 5186
1/27/2019 Fire! 556I109544 Other Parts 556I109544
1/27/2019 The Simpsons Pinball Party 224474 Complete Game 224474
1/27/2019 Medieval Madness 50459100018 Complete Game 50459100018
1/27/2019 Tales of the Arabian Nights 50447300021 Complete Game 50447300021
1/26/2019 Star Trek: The Next Generation 51323403561 Other Parts 51323403561
1/26/2019 Star Trek: The Next Generation 50223493922 Other Parts 50223493922
1/26/2019 Attack from Mars 51341101216 Other Parts 51341101216
1/26/2019 Medieval Madness 50259201113 Other Parts 50259201113

Supported Browsers
Back 5 | Random | Forward 5 | List ]